createdAt,value
2022-12-18T00:01:25.280Z,102867.41
2022-12-18T00:03:53.986Z,102877.63
2022-12-18T00:06:22.817Z,102876.53
2022-12-18T00:08:49.996Z,102872.91
2022-12-18T00:11:19.890Z,102868.63
2022-12-18T00:13:47.547Z,102874.66
2022-12-18T00:16:21.388Z,102874.72
2022-12-18T00:18:49.460Z,102874.81
2022-12-18T00:21:17.198Z,102872.91
2022-12-18T00:23:45.924Z,102870.88
2022-12-18T00:26:15.875Z,102881.84
2022-12-18T00:28:43.539Z,102874.00
2022-12-18T00:31:13.837Z,102868.78
2022-12-18T00:33:43.284Z,102868.75
2022-12-18T00:36:13.672Z,102869.56
2022-12-18T00:38:41.794Z,102865.25
2022-12-18T00:41:12.851Z,102871.22
2022-12-18T00:43:41.191Z,102870.97
2022-12-18T00:46:08.497Z,102869.81
2022-12-18T00:48:36.667Z,102864.53
2022-12-18T00:51:05.274Z,102862.00
2022-12-18T00:53:32.226Z,102858.63
2022-12-18T00:55:59.143Z,102862.22
2022-12-18T00:58:26.183Z,102864.00
2022-12-18T01:00:53.433Z,102860.53
2022-12-18T01:03:20.445Z,102873.56
2022-12-18T01:05:47.371Z,102880.44
2022-12-18T01:08:16.756Z,102882.22
2022-12-18T01:10:43.754Z,102890.91
2022-12-18T01:13:10.694Z,102882.25
2022-12-18T01:15:37.947Z,102886.47
2022-12-18T01:18:05.052Z,102890.69
2022-12-18T01:20:31.992Z,102894.94
2022-12-18T01:22:58.986Z,102895.84
2022-12-18T01:25:27.309Z,102895.88
2022-12-18T01:27:54.236Z,102894.38
2022-12-18T01:30:21.256Z,102892.03
2022-12-18T01:32:48.558Z,102894.63
2022-12-18T01:35:15.751Z,102893.75
2022-12-18T01:37:42.723Z,102910.00
2022-12-18T01:40:10.975Z,102914.22
2022-12-18T01:42:39.245Z,102908.09
2022-12-18T01:45:28.125Z,102903.69
2022-12-18T01:47:58.295Z,102913.81
2022-12-18T01:50:32.531Z,102908.66
2022-12-18T01:53:06.482Z,102906.84
2022-12-18T01:55:41.260Z,102911.16
2022-12-18T01:58:11.063Z,102904.19
2022-12-18T02:00:38.105Z,102903.28
2022-12-18T02:03:05.204Z,102911.00
2022-12-18T02:05:45.812Z,102909.19
2022-12-18T02:08:22.256Z,102898.66
2022-12-18T02:10:58.077Z,102894.22
2022-12-18T02:13:41.465Z,102900.22
2022-12-18T02:16:24.729Z,102896.09
2022-12-18T02:18:59.189Z,102897.03
2022-12-18T02:21:39.214Z,102901.53
2022-12-18T02:24:26.177Z,102903.47
2022-12-18T02:26:59.082Z,102904.31
2022-12-18T02:29:33.632Z,102898.31
2022-12-18T02:32:03.206Z,102905.19
2022-12-18T02:34:37.617Z,102904.25
2022-12-18T02:37:10.533Z,102890.28
2022-12-18T02:39:42.821Z,102888.31
2022-12-18T02:42:12.809Z,102889.03
2022-12-18T02:44:45.373Z,102890.94
2022-12-18T02:47:15.490Z,102887.78
2022-12-18T02:49:58.718Z,102889.69
2022-12-18T02:52:35.913Z,102894.94
2022-12-18T02:55:19.839Z,102888.88
2022-12-18T02:57:56.224Z,102898.44
2022-12-18T03:00:32.141Z,102896.72
2022-12-18T03:03:05.477Z,102893.34
2022-12-18T03:05:40.654Z,102906.53
2022-12-18T03:08:13.268Z,102905.03
2022-12-18T03:10:50.456Z,102907.69
2022-12-18T03:13:28.988Z,102907.69
2022-12-18T03:15:59.928Z,102902.50
2022-12-18T03:18:36.216Z,102907.69
2022-12-18T03:21:08.856Z,102902.38
2022-12-18T03:23:43.962Z,102905.09
2022-12-18T03:26:18.726Z,102906.19
2022-12-18T03:28:52.223Z,102900.19
2022-12-18T03:31:23.300Z,102902.78
2022-12-18T03:33:55.288Z,102904.50
2022-12-18T03:36:24.117Z,102907.84
2022-12-18T03:38:51.960Z,102907.69
2022-12-18T03:41:30.257Z,102904.09
2022-12-18T03:44:12.382Z,102897.03
2022-12-18T03:46:50.407Z,102905.50
2022-12-18T03:49:28.928Z,102902.59
2022-12-18T03:52:03.879Z,102917.03
2022-12-18T03:54:33.822Z,102925.66
2022-12-18T03:57:10.740Z,102922.38
2022-12-18T03:59:40.863Z,102914.81
2022-12-18T04:02:10.056Z,102914.13
2022-12-18T04:04:41.057Z,102901.25
2022-12-18T04:07:09.530Z,102894.31
2022-12-18T04:09:39.573Z,102886.69
2022-12-18T04:12:07.353Z,102887.56
2022-12-18T04:14:36.517Z,102878.81
2022-12-18T04:17:04.898Z,102878.69
2022-12-18T04:19:31.901Z,102883.00
2022-12-18T04:21:58.912Z,102884.81
2022-12-18T04:24:25.919Z,102882.22
2022-12-18T04:26:52.905Z,102881.47
2022-12-18T04:29:19.842Z,102884.97
2022-12-18T04:31:46.819Z,102890.16
2022-12-18T04:34:15.275Z,102898.00
2022-12-18T04:36:42.258Z,102895.84
2022-12-18T04:39:09.309Z,102894.22
2022-12-18T04:41:36.278Z,102893.59
2022-12-18T04:44:03.638Z,102891.06
2022-12-18T04:46:30.656Z,102893.44
2022-12-18T04:48:57.659Z,102895.94
2022-12-18T04:51:26.846Z,102902.78
2022-12-18T04:53:54.366Z,102899.41
2022-12-18T04:56:21.445Z,102893.53
2022-12-18T04:58:48.520Z,102904.88
2022-12-18T05:01:17.908Z,102904.88
2022-12-18T05:03:45.744Z,102902.38
2022-12-18T05:06:12.963Z,102903.28
2022-12-18T05:08:41.358Z,102909.41
2022-12-18T05:11:12.421Z,102924.03
2022-12-18T05:13:39.921Z,102918.03
2022-12-18T05:16:08.527Z,102917.94
2022-12-18T05:18:36.161Z,102923.09
2022-12-18T05:21:04.194Z,102921.38
2022-12-18T05:23:31.166Z,102921.47
2022-12-18T05:26:02.286Z,102922.34
2022-12-18T05:28:32.918Z,102933.59
2022-12-18T05:31:03.418Z,102943.84
2022-12-18T05:33:34.388Z,102947.38
2022-12-18T05:36:04.501Z,102941.34
2022-12-18T05:38:33.616Z,102947.09
2022-12-18T05:41:02.377Z,102945.22
2022-12-18T05:43:30.444Z,102940.66
2022-12-18T05:45:58.383Z,102935.41
2022-12-18T05:48:25.875Z,102942.25
2022-12-18T05:50:52.892Z,102944.03
2022-12-18T05:53:21.501Z,102941.47
2022-12-18T05:55:48.785Z,102923.38
2022-12-18T05:58:17.236Z,102925.91
2022-12-18T06:00:46.534Z,102934.50
2022-12-18T06:03:15.056Z,102932.03
2022-12-18T06:05:45.262Z,102923.47
2022-12-18T06:08:13.979Z,102931.13
2022-12-18T06:10:41.816Z,102932.03
2022-12-18T06:13:09.257Z,102944.25
2022-12-18T06:15:39.105Z,102947.06
2022-12-18T06:18:06.210Z,102938.66
2022-12-18T06:20:34.085Z,102943.22
2022-12-18T06:23:01.268Z,102955.63
2022-12-18T06:25:28.251Z,102946.28
2022-12-18T06:27:55.237Z,102943.94
2022-12-18T06:30:23.436Z,102951.75
2022-12-18T06:32:56.595Z,102954.53
2022-12-18T06:35:24.010Z,102952.13
2022-12-18T06:37:51.704Z,102948.56
2022-12-18T06:40:19.397Z,102948.44
2022-12-18T06:42:46.424Z,102947.44
2022-12-18T06:45:13.457Z,102951.53
2022-12-18T06:47:40.437Z,102948.88
2022-12-18T06:50:09.154Z,102951.53
2022-12-18T06:52:36.166Z,102953.25
2022-12-18T06:55:03.847Z,102964.44
2022-12-18T06:57:30.794Z,102971.47
2022-12-18T06:59:57.728Z,102969.75
2022-12-18T07:02:24.807Z,102972.34
2022-12-18T07:04:51.814Z,102968.88
2022-12-18T07:07:20.139Z,102968.09
2022-12-18T07:09:47.106Z,102971.63
2022-12-18T07:12:14.037Z,102982.88
2022-12-18T07:14:41.002Z,102983.00
2022-12-18T07:17:08.310Z,102987.38
2022-12-18T07:19:35.549Z,102986.59
2022-12-18T07:22:02.788Z,102982.41
2022-12-18T07:24:31.234Z,102985.94
2022-12-18T07:26:58.184Z,102987.72
2022-12-18T07:29:25.456Z,102986.72
2022-12-18T07:31:52.494Z,102985.81
2022-12-18T07:34:19.553Z,102984.88
2022-12-18T07:36:46.464Z,102995.19
2022-12-18T07:39:13.585Z,102992.38
2022-12-18T07:41:47.256Z,102982.75
2022-12-18T07:44:14.733Z,102983.56
2022-12-18T07:46:41.678Z,102980.09
2022-12-18T07:49:08.713Z,102977.34
2022-12-18T07:51:35.646Z,102966.81
2022-12-18T07:54:02.668Z,102971.00
2022-12-18T07:56:31.210Z,102972.97
2022-12-18T07:59:00.566Z,102974.75
2022-12-18T08:01:28.225Z,102972.97
2022-12-18T08:03:55.419Z,102969.31
2022-12-18T08:06:24.252Z,102956.31
2022-12-18T08:08:53.617Z,102960.59
2022-12-18T08:11:20.893Z,102957.00
2022-12-18T08:13:48.585Z,102962.94
2022-12-18T08:16:18.846Z,102955.94
2022-12-18T08:18:46.875Z,102962.59
2022-12-18T08:21:19.028Z,102965.19
2022-12-18T08:23:48.449Z,102957.50
2022-12-18T08:26:16.722Z,102962.66
2022-12-18T08:28:44.207Z,102962.56
2022-12-18T08:31:11.947Z,102965.75
2022-12-18T08:33:42.442Z,102962.84
2022-12-18T08:36:11.849Z,102963.63
2022-12-18T08:38:39.120Z,102966.13
2022-12-18T08:41:08.758Z,102969.59
2022-12-18T08:43:54.411Z,102975.69
2022-12-18T08:46:24.751Z,102965.38
2022-12-18T08:48:55.346Z,102959.47
2022-12-18T08:51:22.423Z,102958.06
2022-12-18T08:53:49.454Z,102956.63
2022-12-18T08:56:17.591Z,102951.47
2022-12-18T08:58:44.611Z,102945.28
2022-12-18T09:01:13.880Z,102932.03
2022-12-18T09:03:41.679Z,102939.13
2022-12-18T09:06:14.020Z,102938.66
2022-12-18T09:08:41.587Z,102929.94
2022-12-18T09:11:20.002Z,102937.06
2022-12-18T09:13:47.026Z,102946.47
2022-12-18T09:16:14.030Z,102952.91
2022-12-18T09:18:41.369Z,102957.88
2022-12-18T09:21:12.658Z,102957.78
2022-12-18T09:23:39.703Z,102957.59
2022-12-18T09:26:06.929Z,102957.38
2022-12-18T09:28:34.344Z,102961.25
2022-12-18T09:31:08.476Z,102963.28
2022-12-18T09:33:36.886Z,102969.72
2022-12-18T09:36:06.731Z,102979.53
2022-12-18T09:38:35.935Z,102980.78
2022-12-18T09:41:16.206Z,102979.50
2022-12-18T09:43:49.414Z,102975.84
2022-12-18T09:46:30.321Z,102974.81
2022-12-18T09:49:04.790Z,102984.13
2022-12-18T09:51:41.943Z,102982.03
2022-12-18T09:54:18.928Z,102988.34
2022-12-18T09:56:45.993Z,102993.94
2022-12-18T09:59:24.822Z,102992.66
2022-12-18T10:01:52.294Z,103000.66
2022-12-18T10:04:19.725Z,102982.59
2022-12-18T10:06:55.811Z,102978.06
2022-12-18T10:09:37.490Z,102981.25
2022-12-18T10:12:17.062Z,102981.22
2022-12-18T10:14:54.427Z,102984.53
2022-12-18T10:17:36.488Z,102989.03
2022-12-18T10:20:14.454Z,102986.41
2022-12-18T10:22:54.056Z,102972.50
2022-12-18T10:25:28.615Z,102975.84
2022-12-18T10:28:08.363Z,102974.22
2022-12-18T10:30:35.522Z,102959.53
2022-12-18T10:33:03.553Z,102959.00
2022-12-18T10:35:30.530Z,102953.47
2022-12-18T10:38:07.651Z,102954.13
2022-12-18T10:40:51.240Z,102939.09
2022-12-18T10:43:24.709Z,102943.28
2022-12-18T10:46:20.247Z,102941.69
2022-12-18T10:48:57.036Z,102941.56
2022-12-18T10:51:31.357Z,102937.34
2022-12-18T10:54:03.276Z,102926.28
2022-12-18T10:56:36.643Z,102941.69
2022-12-18T10:59:06.722Z,102940.00
2022-12-18T11:01:50.662Z,102941.81
2022-12-18T11:04:21.637Z,102924.75
2022-12-18T11:06:59.313Z,102922.22
2022-12-18T11:09:28.573Z,102912.56
2022-12-18T11:12:00.116Z,102906.53
2022-12-18T11:14:31.884Z,102905.63
2022-12-18T11:19:57.444Z,102891.31
2022-12-18T11:22:28.712Z,102879.69
2022-12-18T11:27:56.280Z,102885.16
2022-12-18T11:30:27.735Z,102883.63
2022-12-18T11:33:02.764Z,102888.28
2022-12-18T11:35:43.052Z,102884.41
2022-12-18T11:38:24.190Z,102876.50
2022-12-18T11:40:59.958Z,102869.78
2022-12-18T11:43:35.719Z,102861.47
2022-12-18T11:46:13.480Z,102846.25
2022-12-18T11:48:51.616Z,102839.72
2022-12-18T11:51:30.527Z,102828.81
2022-12-18T11:53:57.594Z,102826.56
2022-12-18T11:56:33.517Z,102827.47
2022-12-18T11:59:16.149Z,102826.31
2022-12-18T12:01:53.489Z,102827.19
2022-12-18T12:04:54.071Z,102829.25
2022-12-18T12:07:38.366Z,102824.41
2022-12-18T12:10:23.713Z,102820.97
2022-12-18T12:13:12.334Z,102826.25
2022-12-18T12:15:59.544Z,102808.59
2022-12-18T12:18:44.457Z,102814.84
2022-12-18T12:21:24.955Z,102822.03
2022-12-18T12:24:02.232Z,102817.34
2022-12-18T12:26:40.827Z,102800.69
2022-12-18T12:29:30.012Z,102808.06
2022-12-18T12:32:17.543Z,102801.34
2022-12-18T12:35:09.239Z,102803.50
2022-12-18T12:37:52.801Z,102793.41
2022-12-18T12:40:51.367Z,102783.16
2022-12-18T12:43:26.768Z,102772.16
2022-12-18T12:46:00.922Z,102777.56
2022-12-18T12:48:41.736Z,102784.66
2022-12-18T12:51:17.394Z,102782.84
2022-12-18T12:53:45.258Z,102775.19
2022-12-18T12:56:16.823Z,102774.25
2022-12-18T12:59:02.891Z,102762.09
2022-12-18T13:01:42.032Z,102774.19
2022-12-18T13:04:27.584Z,102779.88
2022-12-18T13:07:06.243Z,102772.81
2022-12-18T13:09:36.855Z,102771.31
2022-12-18T13:12:33.420Z,102768.31
2022-12-18T13:15:25.105Z,102764.25
2022-12-18T13:18:12.517Z,102753.94
2022-12-18T13:20:45.628Z,102754.91
2022-12-18T13:23:37.164Z,102742.81
2022-12-18T13:26:32.343Z,102740.84
2022-12-18T13:29:02.872Z,102730.81
2022-12-18T13:32:01.665Z,102724.78
2022-12-18T13:34:32.710Z,102728.84
2022-12-18T13:37:45.323Z,102732.88
2022-12-18T13:40:56.167Z,102729.66
2022-12-18T13:43:37.837Z,102727.69
2022-12-18T13:46:23.681Z,102731.66
2022-12-18T13:48:56.604Z,102723.56
2022-12-18T13:51:25.434Z,102707.50
2022-12-18T13:53:58.891Z,102700.59
2022-12-18T13:56:28.555Z,102702.88
2022-12-18T13:59:17.825Z,102690.44
2022-12-18T14:01:54.817Z,102690.38
2022-12-18T14:04:27.300Z,102692.88
2022-12-18T14:06:59.879Z,102692.88
2022-12-18T14:10:18.887Z,102678.81
2022-12-18T14:13:00.355Z,102686.00
2022-12-18T14:15:35.002Z,102690.38
2022-12-18T14:18:20.383Z,102680.03
2022-12-18T14:20:52.893Z,102681.34
2022-12-18T14:23:30.699Z,102662.53
2022-12-18T14:26:03.775Z,102672.47
2022-12-18T14:28:32.865Z,102652.31
2022-12-18T14:31:00.078Z,102672.16
2022-12-18T14:33:28.707Z,102674.47
2022-12-18T14:36:01.387Z,102669.56
2022-12-18T14:38:31.560Z,102658.00
2022-12-18T14:41:02.446Z,102655.31
2022-12-18T14:43:33.901Z,102647.69
2022-12-18T14:46:02.527Z,102642.66
2022-12-18T14:48:39.861Z,102642.03
2022-12-18T14:51:17.202Z,102644.09
2022-12-18T14:53:54.148Z,102639.56
2022-12-18T14:56:26.381Z,102637.22
2022-12-18T14:58:57.478Z,102622.47
2022-12-18T15:01:29.893Z,102622.56
2022-12-18T15:03:59.662Z,102622.47
2022-12-18T15:06:34.438Z,102623.41
2022-12-18T15:09:04.788Z,102623.31
2022-12-18T15:11:46.869Z,102626.44
2022-12-18T15:14:35.794Z,102617.59
2022-12-18T15:17:07.461Z,102620.50
2022-12-18T15:19:41.385Z,102609.09
2022-12-18T15:22:23.602Z,102605.50
2022-12-18T15:24:51.710Z,102602.00
2022-12-18T15:27:38.548Z,102606.22
2022-12-18T15:30:22.952Z,102595.28
2022-12-18T15:32:51.632Z,102592.91
2022-12-18T15:35:23.100Z,102585.66
2022-12-18T15:37:51.747Z,102588.25
2022-12-18T15:40:22.275Z,102582.75
2022-12-18T15:43:13.884Z,102571.59
2022-12-18T15:45:41.160Z,102569.66
2022-12-18T15:48:21.081Z,102562.41
2022-12-18T15:50:51.689Z,102567.88
2022-12-18T15:53:19.751Z,102570.78
2022-12-18T15:56:05.603Z,102559.84
2022-12-18T15:58:34.208Z,102557.31
2022-12-18T16:01:02.208Z,102558.69
2022-12-18T16:03:29.875Z,102564.50
2022-12-18T16:05:59.047Z,102570.47
2022-12-18T16:08:27.398Z,102561.59
2022-12-18T16:10:56.805Z,102557.59
2022-12-18T16:13:23.995Z,102556.91
2022-12-18T16:16:10.752Z,102551.78
2022-12-18T16:18:37.943Z,102549.53
2022-12-18T16:21:05.488Z,102535.97
2022-12-18T16:23:32.424Z,102529.00
2022-12-18T16:25:59.414Z,102516.66
2022-12-18T16:28:26.352Z,102515.94
2022-12-18T16:30:53.350Z,102506.50
2022-12-18T16:33:21.665Z,102503.72
2022-12-18T16:35:53.313Z,102497.59
2022-12-18T16:38:20.745Z,102501.72
2022-12-18T16:41:11.502Z,102498.38
2022-12-18T16:43:39.072Z,102500.31
2022-12-18T16:46:06.328Z,102499.19
2022-12-18T16:48:34.690Z,102496.41
2022-12-18T16:51:05.236Z,102498.84
2022-12-18T16:53:34.183Z,102493.16
2022-12-18T16:56:02.325Z,102490.66
2022-12-18T16:58:29.272Z,102485.63
2022-12-18T17:00:56.197Z,102476.59
2022-12-18T17:03:23.224Z,102481.56
2022-12-18T17:05:53.282Z,102473.03
2022-12-18T17:08:20.492Z,102475.13
2022-12-18T17:10:47.449Z,102469.78
2022-12-18T17:13:14.426Z,102463.53
2022-12-18T17:15:41.441Z,102464.69
2022-12-18T17:18:08.477Z,102470.53
2022-12-18T17:20:35.430Z,102471.19
2022-12-18T17:23:04.425Z,102473.03
2022-12-18T17:25:31.350Z,102468.00
2022-12-18T17:27:58.271Z,102472.84
2022-12-18T17:30:25.221Z,102467.31
2022-12-18T17:32:52.182Z,102454.41
2022-12-18T17:35:19.751Z,102448.91
2022-12-18T17:37:46.749Z,102450.03
2022-12-18T17:40:15.111Z,102445.38
2022-12-18T17:42:42.066Z,102431.19
2022-12-18T17:45:10.164Z,102431.03
2022-12-18T17:47:37.718Z,102419.72
2022-12-18T17:50:05.366Z,102406.13
2022-12-18T17:52:32.291Z,102395.00
2022-12-18T17:54:59.241Z,102395.22
2022-12-18T17:57:27.577Z,102386.78
2022-12-18T17:59:54.534Z,102389.06
2022-12-18T18:02:22.599Z,102375.38
2022-12-18T18:04:50.154Z,102374.78
2022-12-18T18:07:17.109Z,102376.78
2022-12-18T18:09:44.197Z,102370.69
2022-12-18T18:12:30.078Z,102373.44
2022-12-18T18:14:58.727Z,102371.59
2022-12-18T18:17:26.084Z,102376.31
2022-12-18T18:19:53.213Z,102361.31
2022-12-18T18:22:20.330Z,102364.69
2022-12-18T18:24:47.400Z,102347.16
2022-12-18T18:27:15.005Z,102347.75
2022-12-18T18:29:42.088Z,102326.88
2022-12-18T18:32:10.583Z,102331.16
2022-12-18T18:34:37.562Z,102330.22
2022-12-18T18:37:04.620Z,102333.09
2022-12-18T18:39:31.734Z,102328.13
2022-12-18T18:41:59.295Z,102332.06
2022-12-18T18:44:26.662Z,102321.41
2022-12-18T18:46:55.397Z,102312.03
2022-12-18T18:49:27.238Z,102320.84
2022-12-18T18:51:54.972Z,102311.53
2022-12-18T18:54:22.134Z,102293.75
2022-12-18T18:59:37.309Z,102289.81
2022-12-18T19:02:05.152Z,102285.94
2022-12-18T19:04:34.715Z,102286.31
2022-12-18T19:07:02.043Z,102262.44
2022-12-18T19:09:31.230Z,102278.53
2022-12-18T19:12:16.958Z,102276.91
2022-12-18T19:14:44.320Z,102265.84
2022-12-18T19:17:11.517Z,102287.13
2022-12-18T19:19:40.272Z,102281.91
2022-12-18T19:22:07.484Z,102279.38
2022-12-18T19:24:35.770Z,102279.38
2022-12-18T19:27:02.873Z,102295.75
2022-12-18T19:29:29.843Z,102288.66
2022-12-18T19:31:56.909Z,102273.25
2022-12-18T19:34:23.917Z,102270.97
2022-12-18T19:36:57.962Z,102283.13
2022-12-18T19:39:27.129Z,102272.56
2022-12-18T19:41:54.492Z,102279.00
2022-12-18T19:44:21.430Z,102293.00
2022-12-18T19:46:51.518Z,102312.66
2022-12-18T19:49:22.269Z,102311.25
2022-12-18T19:51:50.415Z,102319.81
2022-12-18T19:54:19.042Z,102318.72
2022-12-18T19:56:46.514Z,102309.69
2022-12-18T19:59:14.366Z,102308.50
2022-12-18T20:01:41.672Z,102297.06
2022-12-18T20:04:09.038Z,102282.09
2022-12-18T20:06:46.943Z,102292.31
2022-12-18T20:09:14.532Z,102306.63
2022-12-18T20:11:43.183Z,102295.22
2022-12-18T20:14:12.028Z,102296.69
2022-12-18T20:16:40.016Z,102286.66
2022-12-18T20:19:07.592Z,102295.66
2022-12-18T20:21:35.398Z,102298.28
2022-12-18T20:24:02.414Z,102289.91
2022-12-18T20:26:30.096Z,102297.72
2022-12-18T20:28:58.416Z,102296.34
2022-12-18T20:31:25.556Z,102277.63
2022-12-18T20:33:54.475Z,102279.75
2022-12-18T20:36:25.873Z,102276.59
2022-12-18T20:38:57.272Z,102283.84
2022-12-18T20:41:31.036Z,102269.91
2022-12-18T20:44:21.467Z,102282.09
2022-12-18T20:46:53.260Z,102291.31
2022-12-18T20:49:20.338Z,102284.63
2022-12-18T20:51:51.259Z,102277.91
2022-12-18T20:54:19.404Z,102277.34
2022-12-18T20:56:46.379Z,102255.97
2022-12-18T20:59:14.748Z,102266.41
2022-12-18T21:01:48.032Z,102262.50
2022-12-18T21:04:18.020Z,102256.72
2022-12-18T21:06:51.385Z,102277.63
2022-12-18T21:09:18.866Z,102276.16
2022-12-18T21:12:04.638Z,102265.44
2022-12-18T21:14:33.026Z,102267.59
2022-12-18T21:17:02.900Z,102261.81
2022-12-18T21:19:30.282Z,102255.25
2022-12-18T21:21:58.325Z,102251.50
2022-12-18T21:24:26.326Z,102244.44
2022-12-18T21:26:55.332Z,102239.91
2022-12-18T21:29:24.627Z,102236.16
2022-12-18T21:31:54.636Z,102241.28
2022-12-18T21:34:26.238Z,102237.81
2022-12-18T21:36:54.363Z,102236.00
2022-12-18T21:39:22.533Z,102239.50
2022-12-18T21:42:08.737Z,102234.13
2022-12-18T21:44:41.800Z,102223.31
2022-12-18T21:47:21.350Z,102227.31
2022-12-18T21:49:49.679Z,102229.81
2022-12-18T21:52:17.108Z,102229.91
2022-12-18T21:54:44.054Z,102226.28
2022-12-18T21:57:13.248Z,102216.44
2022-12-18T21:59:43.220Z,102211.75
2022-12-18T22:02:14.860Z,102213.13
2022-12-18T22:04:43.290Z,102202.34
2022-12-18T22:07:11.886Z,102205.75
2022-12-18T22:09:39.438Z,102215.13
2022-12-18T22:12:08.878Z,102205.75
2022-12-18T22:14:35.905Z,102204.66
2022-12-18T22:17:02.900Z,102207.69
2022-12-18T22:19:32.433Z,102204.66
2022-12-18T22:22:00.356Z,102203.69
2022-12-18T22:24:29.090Z,102202.78
2022-12-18T22:27:01.721Z,102196.22
2022-12-18T22:29:48.005Z,102193.72
2022-12-18T22:32:16.939Z,102187.72
2022-12-18T22:34:50.374Z,102184.91
2022-12-18T22:37:17.298Z,102184.53
2022-12-18T22:39:44.240Z,102186.84
2022-12-18T22:42:11.474Z,102179.56
2022-12-18T22:44:38.411Z,102182.91
2022-12-18T22:47:07.215Z,102175.81
2022-12-18T22:49:35.750Z,102175.44
2022-12-18T22:52:06.805Z,102180.41
2022-12-18T22:54:34.003Z,102175.13
2022-12-18T22:57:00.925Z,102174.16
2022-12-18T22:59:27.870Z,102170.84
2022-12-18T23:01:58.442Z,102178.84
2022-12-18T23:04:30.596Z,102169.19
2022-12-18T23:07:05.869Z,102165.63
2022-12-18T23:09:33.133Z,102156.66
2022-12-18T23:12:00.438Z,102165.31
2022-12-18T23:14:27.935Z,102165.66
2022-12-18T23:16:54.990Z,102158.44
2022-12-18T23:19:23.424Z,102139.28
2022-12-18T23:21:51.132Z,102126.22
2022-12-18T23:24:19.424Z,102115.56
2022-12-18T23:26:46.358Z,102125.97
2022-12-18T23:29:13.358Z,102118.16
2022-12-18T23:31:40.445Z,102114.53
2022-12-18T23:34:08.703Z,102101.41
2022-12-18T23:36:45.284Z,102102.53
2022-12-18T23:39:17.980Z,102111.00
2022-12-18T23:41:58.798Z,102101.19
2022-12-18T23:44:26.131Z,102094.09
2022-12-18T23:46:53.199Z,102087.84
2022-12-18T23:49:20.456Z,102091.72
2022-12-18T23:51:47.394Z,102073.75
2022-12-18T23:54:14.560Z,102082.13
2022-12-18T23:56:41.575Z,102089.31
2022-12-18T23:59:10.358Z,102082.75
